createdAt,value
2022-08-26T00:00:20.254Z,-68
2022-08-26T00:02:48.724Z,-68
2022-08-26T00:05:17.410Z,-68
2022-08-26T00:07:46.309Z,-69
2022-08-26T00:10:15.195Z,-68
2022-08-26T00:12:43.871Z,-68
2022-08-26T00:15:16.644Z,-69
2022-08-26T00:17:45.060Z,-68
2022-08-26T00:20:16.654Z,-68
2022-08-26T00:22:45.268Z,-68
2022-08-26T00:25:14.630Z,-68
2022-08-26T00:27:45.435Z,-68
2022-08-26T00:30:24.239Z,-68
2022-08-26T00:32:55.446Z,-68
2022-08-26T00:35:25.819Z,-68
2022-08-26T00:37:56.999Z,-68
2022-08-26T00:40:38.180Z,-68
2022-08-26T00:43:09.412Z,-68
2022-08-26T00:45:54.048Z,-68
2022-08-26T00:48:26.543Z,-68
2022-08-26T00:51:11.766Z,-68
2022-08-26T00:53:49.635Z,-68
2022-08-26T00:56:19.811Z,-68
2022-08-26T00:58:48.713Z,-68
2022-08-26T01:01:17.459Z,-68
2022-08-26T01:03:47.611Z,-69
2022-08-26T01:06:16.301Z,-69
2022-08-26T01:08:45.623Z,-69
2022-08-26T01:11:15.197Z,-69
2022-08-26T01:13:44.905Z,-68
2022-08-26T01:16:16.896Z,-68
2022-08-26T01:18:46.886Z,-69
2022-08-26T01:21:40.755Z,-69
2022-08-26T01:24:11.331Z,-68
2022-08-26T01:26:44.728Z,-69
2022-08-26T01:29:19.161Z,-68
2022-08-26T01:31:55.307Z,-68
2022-08-26T01:34:37.639Z,-69
2022-08-26T01:37:22.935Z,-68
2022-08-26T01:39:56.120Z,-69
2022-08-26T01:42:27.047Z,-68
2022-08-26T01:45:13.352Z,-68
2022-08-26T01:47:43.075Z,-68
2022-08-26T01:50:27.783Z,-68
2022-08-26T01:53:01.782Z,-69
2022-08-26T01:55:32.942Z,-68
2022-08-26T01:58:07.654Z,-68
2022-08-26T02:00:37.463Z,-68
2022-08-26T02:03:22.180Z,-68
2022-08-26T02:06:00.881Z,-68
2022-08-26T02:08:45.203Z,-68
2022-08-26T02:11:15.085Z,-68
2022-08-26T02:13:54.845Z,-68
2022-08-26T02:16:28.357Z,-68
2022-08-26T02:18:57.853Z,-67
2022-08-26T02:21:26.624Z,-68
2022-08-26T02:23:56.143Z,-68
2022-08-26T02:26:26.952Z,-68
2022-08-26T02:29:07.483Z,-68
2022-08-26T02:31:36.397Z,-68
2022-08-26T02:34:21.734Z,-68
2022-08-26T02:36:50.772Z,-68
2022-08-26T02:39:22.133Z,-68
2022-08-26T02:41:51.217Z,-68
2022-08-26T02:44:19.999Z,-68
2022-08-26T02:46:48.593Z,-68
2022-08-26T02:49:17.906Z,-68
2022-08-26T02:51:46.750Z,-68
2022-08-26T02:54:15.568Z,-68
2022-08-26T02:56:44.552Z,-68
2022-08-26T02:59:13.491Z,-68
2022-08-26T03:01:42.942Z,-68
2022-08-26T03:04:13.887Z,-68
2022-08-26T03:06:44.064Z,-68
2022-08-26T03:09:21.732Z,-68
2022-08-26T03:11:52.604Z,-68
2022-08-26T03:14:21.044Z,-82
2022-08-26T03:16:51.876Z,-85
2022-08-26T03:19:20.954Z,-85
2022-08-26T03:21:49.357Z,-86
2022-08-26T03:24:18.295Z,-86
2022-08-26T03:26:52.095Z,-85
2022-08-26T03:29:39.119Z,-85
2022-08-26T03:32:07.768Z,-85
2022-08-26T03:34:36.765Z,-86
2022-08-26T03:37:05.205Z,-86
2022-08-26T03:39:33.676Z,-86
2022-08-26T03:42:02.574Z,-85
2022-08-26T03:44:31.536Z,-86
2022-08-26T03:47:01.163Z,-85
2022-08-26T03:49:31.127Z,-87
2022-08-26T03:51:59.684Z,-86
2022-08-26T03:54:28.056Z,-86
2022-08-26T03:56:56.431Z,-87
2022-08-26T03:59:25.461Z,-86
2022-08-26T04:01:53.909Z,-86
2022-08-26T04:04:22.805Z,-86
2022-08-26T04:06:59.305Z,-86
2022-08-26T04:09:28.792Z,-86
2022-08-26T04:11:57.446Z,-86
2022-08-26T04:14:27.799Z,-85
2022-08-26T04:16:57.330Z,-86
2022-08-26T04:19:26.356Z,-85
2022-08-26T04:21:55.364Z,-85
2022-08-26T04:24:26.746Z,-84
2022-08-26T04:26:56.638Z,-85
2022-08-26T04:29:27.575Z,-85
2022-08-26T04:31:56.801Z,-85
2022-08-26T04:34:28.433Z,-85
2022-08-26T04:36:57.823Z,-86
2022-08-26T04:39:27.696Z,-85
2022-08-26T04:41:57.890Z,-85
2022-08-26T04:44:29.477Z,-86
2022-08-26T04:46:58.436Z,-85
2022-08-26T04:49:27.669Z,-86
2022-08-26T04:51:56.181Z,-86
2022-08-26T04:54:25.781Z,-85
2022-08-26T04:56:54.214Z,-85
2022-08-26T04:59:22.538Z,-86
2022-08-26T05:01:56.402Z,-86
2022-08-26T05:04:24.910Z,-85
2022-08-26T05:06:57.819Z,-86
2022-08-26T05:09:28.138Z,-85
2022-08-26T05:11:56.571Z,-86
2022-08-26T05:14:25.086Z,-85
2022-08-26T05:16:54.009Z,-85
2022-08-26T05:19:22.813Z,-86
2022-08-26T05:21:51.754Z,-86
2022-08-26T05:24:20.299Z,-85
2022-08-26T05:26:49.599Z,-86
2022-08-26T05:29:18.563Z,-86
2022-08-26T05:31:48.299Z,-86
2022-08-26T05:34:19.237Z,-86
2022-08-26T05:36:48.914Z,-86
2022-08-26T05:39:17.398Z,-86
2022-08-26T05:41:45.879Z,-86
2022-08-26T05:44:18.733Z,-85
2022-08-26T05:46:47.554Z,-86
2022-08-26T05:49:16.794Z,-86
2022-08-26T05:51:47.515Z,-85
2022-08-26T05:54:21.700Z,-85
2022-08-26T05:56:52.131Z,-86
2022-08-26T05:59:24.397Z,-85
2022-08-26T06:01:54.611Z,-85
2022-08-26T06:04:27.160Z,-86
2022-08-26T06:06:56.844Z,-85
2022-08-26T06:09:25.210Z,-85
2022-08-26T06:11:53.942Z,-86
2022-08-26T06:14:23.007Z,-86
2022-08-26T06:16:51.435Z,-86
2022-08-26T06:19:21.551Z,-85
2022-08-26T06:21:54.877Z,-86
2022-08-26T06:24:40.706Z,-85
2022-08-26T06:27:13.798Z,-85
2022-08-26T06:29:42.886Z,-86
2022-08-26T06:32:11.626Z,-85
2022-08-26T06:34:40.102Z,-86
2022-08-26T06:37:08.905Z,-86
2022-08-26T06:39:41.171Z,-86
2022-08-26T06:42:11.770Z,-85
2022-08-26T06:44:41.669Z,-86
2022-08-26T06:47:13.132Z,-85
2022-08-26T06:49:41.757Z,-86
2022-08-26T06:52:10.234Z,-85
2022-08-26T06:54:43.102Z,-86
2022-08-26T06:57:14.258Z,-86
2022-08-26T06:59:45.116Z,-86
2022-08-26T07:02:13.842Z,-86
2022-08-26T07:04:42.613Z,-85
2022-08-26T07:07:14.313Z,-86
2022-08-26T07:09:42.710Z,-85
2022-08-26T07:12:11.316Z,-86
2022-08-26T07:14:39.646Z,-85
2022-08-26T07:17:12.189Z,-86
2022-08-26T07:19:42.492Z,-86
2022-08-26T07:22:10.969Z,-86
2022-08-26T07:24:42.348Z,-85
2022-08-26T07:27:16.313Z,-86
2022-08-26T07:29:46.004Z,-86
2022-08-26T07:32:22.923Z,-86
2022-08-26T07:34:51.656Z,-86
2022-08-26T07:37:20.687Z,-86
2022-08-26T07:39:49.238Z,-86
2022-08-26T07:42:20.433Z,-87
2022-08-26T07:44:49.325Z,-86
2022-08-26T07:47:25.405Z,-86
2022-08-26T07:49:58.390Z,-86
2022-08-26T07:52:29.632Z,-86
2022-08-26T07:55:00.870Z,-86
2022-08-26T07:57:30.522Z,-86
2022-08-26T07:59:59.655Z,-86
2022-08-26T08:02:29.847Z,-85
2022-08-26T08:04:59.437Z,-86
2022-08-26T08:07:44.435Z,-86
2022-08-26T08:10:21.358Z,-86
2022-08-26T08:12:50.300Z,-86
2022-08-26T08:15:22.776Z,-86
2022-08-26T08:17:51.781Z,-87
2022-08-26T08:20:20.851Z,-86
2022-08-26T08:22:50.104Z,-86
2022-08-26T08:25:20.626Z,-86
2022-08-26T08:27:49.645Z,-85
2022-08-26T08:30:22.791Z,-86
2022-08-26T08:32:52.369Z,-87
2022-08-26T08:35:22.710Z,-87
2022-08-26T08:37:54.754Z,-87
2022-08-26T08:40:26.611Z,-86
2022-08-26T08:43:23.323Z,-86
2022-08-26T08:46:00.669Z,-86
2022-08-26T08:48:40.215Z,-86
2022-08-26T08:51:30.688Z,-86
2022-08-26T08:53:59.693Z,-87
2022-08-26T08:56:30.415Z,-86
2022-08-26T08:59:09.981Z,-86
2022-08-26T09:01:53.951Z,-86
2022-08-26T09:04:55.986Z,-86
2022-08-26T09:07:37.707Z,-86
2022-08-26T09:10:06.229Z,-87
2022-08-26T09:12:36.708Z,-86
2022-08-26T09:15:26.407Z,-86
2022-08-26T09:18:24.782Z,-86
2022-08-26T09:21:09.320Z,-85
2022-08-26T09:23:43.040Z,-86
2022-08-26T09:26:30.994Z,-86
2022-08-26T09:29:08.910Z,-86
2022-08-26T09:31:40.657Z,-85
2022-08-26T09:34:22.308Z,-86
2022-08-26T09:36:58.779Z,-86
2022-08-26T09:39:27.525Z,-86
2022-08-26T09:42:25.527Z,-86
2022-08-26T09:45:06.777Z,-86
2022-08-26T09:47:54.809Z,-85
2022-08-26T09:50:39.433Z,-86
2022-08-26T09:53:21.093Z,-86
2022-08-26T09:56:19.069Z,-85
2022-08-26T09:58:49.202Z,-85
2022-08-26T10:01:38.242Z,-85
2022-08-26T10:04:10.983Z,-85
2022-08-26T10:07:05.465Z,-86
2022-08-26T10:09:44.560Z,-85
2022-08-26T10:12:18.924Z,-84
2022-08-26T10:14:57.647Z,-85
2022-08-26T10:17:41.799Z,-85
2022-08-26T10:20:23.253Z,-85
2022-08-26T10:23:12.241Z,-85
2022-08-26T10:25:53.393Z,-85
2022-08-26T10:28:44.294Z,-84
2022-08-26T10:31:30.894Z,-85
2022-08-26T10:34:09.685Z,-85
2022-08-26T10:37:14.327Z,-85
2022-08-26T10:40:07.564Z,-84
2022-08-26T10:42:43.468Z,-85
2022-08-26T10:45:25.382Z,-85
2022-08-26T10:48:11.155Z,-85
2022-08-26T10:50:43.364Z,-84
2022-08-26T10:53:37.647Z,-85
2022-08-26T10:56:46.057Z,-86
2022-08-26T11:00:28.159Z,-85
2022-08-26T11:03:34.577Z,-85
2022-08-26T11:06:25.258Z,-84
2022-08-26T11:09:02.794Z,-85
2022-08-26T11:11:45.266Z,-85
2022-08-26T11:14:28.658Z,-85
2022-08-26T11:17:00.218Z,-85
2022-08-26T11:19:57.126Z,-85
2022-08-26T11:22:47.860Z,-85
2022-08-26T11:25:29.732Z,-85
2022-08-26T11:28:00.829Z,-85
2022-08-26T11:30:41.290Z,-85
2022-08-26T11:33:09.744Z,-85
2022-08-26T11:35:38.222Z,-85
2022-08-26T11:38:19.841Z,-85
2022-08-26T11:41:07.042Z,-86
2022-08-26T11:43:36.408Z,-85
2022-08-26T11:46:14.349Z,-85
2022-08-26T11:48:45.282Z,-85
2022-08-26T11:51:26.659Z,-85
2022-08-26T11:54:13.962Z,-85
2022-08-26T11:56:48.435Z,-85
2022-08-26T11:59:27.852Z,-85
2022-08-26T12:01:59.396Z,-84
2022-08-26T12:04:39.005Z,-85
2022-08-26T12:07:09.818Z,-85
2022-08-26T12:09:58.265Z,-85
2022-08-26T12:12:34.704Z,-85
2022-08-26T12:15:23.288Z,-85
2022-08-26T12:17:58.657Z,-85
2022-08-26T12:20:48.748Z,-84
2022-08-26T12:23:36.598Z,-84
2022-08-26T12:26:10.381Z,-85
2022-08-26T12:28:57.463Z,-85
2022-08-26T12:31:44.128Z,-85
2022-08-26T12:34:18.597Z,-84
2022-08-26T12:39:33.930Z,-87
2022-08-26T12:42:18.954Z,-85
2022-08-26T12:44:54.089Z,-85
2022-08-26T12:47:43.601Z,-86
2022-08-26T12:50:23.846Z,-86
2022-08-26T12:53:15.061Z,-86
2022-08-26T12:55:51.325Z,-85
2022-08-26T12:58:33.887Z,-85
2022-08-26T13:01:08.767Z,-85
2022-08-26T13:03:39.315Z,-85
2022-08-26T13:06:25.864Z,-85
2022-08-26T13:09:25.565Z,-85
2022-08-26T13:11:54.168Z,-85
2022-08-26T13:14:25.236Z,-85
2022-08-26T13:16:54.833Z,-85
2022-08-26T13:19:28.739Z,-85
2022-08-26T13:22:01.718Z,-85
2022-08-26T13:24:32.876Z,-85
2022-08-26T13:27:04.344Z,-85
2022-08-26T13:29:32.918Z,-85
2022-08-26T13:32:01.766Z,-84
2022-08-26T13:34:30.764Z,-85
2022-08-26T13:36:59.728Z,-84
2022-08-26T13:39:29.353Z,-85
2022-08-26T13:41:57.877Z,-85
2022-08-26T13:44:26.497Z,-87
2022-08-26T13:46:55.587Z,-87
2022-08-26T13:49:24.307Z,-88
2022-08-26T13:51:54.234Z,-87
2022-08-26T13:54:23.832Z,-87
2022-08-26T13:56:52.674Z,-88
2022-08-26T13:59:21.326Z,-87
2022-08-26T14:01:52.142Z,-87
2022-08-26T14:04:39.115Z,-87
2022-08-26T14:07:07.683Z,-87
2022-08-26T14:09:38.444Z,-88
2022-08-26T14:12:07.689Z,-87
2022-08-26T14:14:36.550Z,-87
2022-08-26T14:17:05.188Z,-87
2022-08-26T14:19:34.197Z,-87
2022-08-26T14:22:05.950Z,-87
2022-08-26T14:24:34.670Z,-87
2022-08-26T14:27:05.589Z,-88
2022-08-26T14:29:34.180Z,-87
2022-08-26T14:32:11.810Z,-87
2022-08-26T14:34:42.758Z,-87
2022-08-26T14:37:15.134Z,-89
2022-08-26T14:39:44.105Z,-87
2022-08-26T14:42:15.151Z,-87
2022-08-26T14:44:48.233Z,-87
2022-08-26T14:47:18.807Z,-87
2022-08-26T14:49:47.469Z,-87
2022-08-26T14:52:16.085Z,-88
2022-08-26T14:54:43.796Z,-87
2022-08-26T14:57:14.784Z,-88
2022-08-26T14:59:49.992Z,-87
2022-08-26T15:02:27.761Z,-87
2022-08-26T15:05:05.319Z,-89
2022-08-26T15:07:33.853Z,-87
2022-08-26T15:10:02.500Z,-88
2022-08-26T15:12:31.528Z,-87
2022-08-26T15:14:59.959Z,-73
2022-08-26T15:17:28.693Z,-73
2022-08-26T15:19:57.112Z,-73
2022-08-26T15:22:29.797Z,-73
2022-08-26T15:24:59.223Z,-74
2022-08-26T15:27:27.772Z,-73
2022-08-26T15:29:56.316Z,-73
2022-08-26T15:32:24.808Z,-73
2022-08-26T15:34:53.301Z,-74
2022-08-26T15:37:21.855Z,-74
2022-08-26T15:39:50.496Z,-74
2022-08-26T15:42:20.893Z,-74
2022-08-26T15:44:49.980Z,-74
2022-08-26T15:47:18.445Z,-73
2022-08-26T15:49:46.940Z,-74
2022-08-26T15:52:18.543Z,-73
2022-08-26T15:54:47.070Z,-73
2022-08-26T15:57:18.711Z,-73
2022-08-26T15:59:48.254Z,-73
2022-08-26T16:02:16.847Z,-73
2022-08-26T16:04:45.359Z,-73
2022-08-26T16:07:13.965Z,-73
2022-08-26T16:09:42.443Z,-73
2022-08-26T16:12:11.000Z,-73
2022-08-26T16:14:42.504Z,-73
2022-08-26T16:17:11.605Z,-73
2022-08-26T16:19:40.121Z,-73
2022-08-26T16:22:09.156Z,-73
2022-08-26T16:24:38.490Z,-73
2022-08-26T16:27:08.422Z,-73
2022-08-26T16:29:39.327Z,-73
2022-08-26T16:32:08.968Z,-73
2022-08-26T16:34:37.764Z,-73
2022-08-26T16:37:15.742Z,-73
2022-08-26T16:39:45.195Z,-73
2022-08-26T16:42:13.904Z,-73
2022-08-26T16:44:45.402Z,-73
2022-08-26T16:47:15.642Z,-73
2022-08-26T16:49:44.293Z,-74
2022-08-26T16:52:14.046Z,-74
2022-08-26T16:54:42.878Z,-74
2022-08-26T16:57:14.496Z,-74
2022-08-26T16:59:43.046Z,-73
2022-08-26T17:02:11.995Z,-73
2022-08-26T17:04:41.282Z,-73
2022-08-26T17:07:14.526Z,-73
2022-08-26T17:09:43.152Z,-73
2022-08-26T17:12:11.549Z,-73
2022-08-26T17:14:40.013Z,-73
2022-08-26T17:17:08.830Z,-73
2022-08-26T17:19:46.838Z,-73
2022-08-26T17:22:16.139Z,-73
2022-08-26T17:24:44.689Z,-73
2022-08-26T17:27:13.161Z,-73
2022-08-26T17:29:41.554Z,-73
2022-08-26T17:32:09.985Z,-73
2022-08-26T17:34:38.408Z,-74
2022-08-26T17:37:06.893Z,-74
2022-08-26T17:39:37.148Z,-74
2022-08-26T17:42:05.831Z,-73
2022-08-26T17:44:35.044Z,-73
2022-08-26T17:47:03.449Z,-73
2022-08-26T17:49:32.049Z,-73
2022-08-26T17:52:01.350Z,-73
2022-08-26T17:54:30.152Z,-73
2022-08-26T17:57:00.266Z,-73
2022-08-26T17:59:30.769Z,-74
2022-08-26T18:01:59.734Z,-73
2022-08-26T18:04:28.387Z,-73
2022-08-26T18:06:56.902Z,-73
2022-08-26T18:09:25.380Z,-73
2022-08-26T18:11:53.910Z,-73
2022-08-26T18:14:22.404Z,-73
2022-08-26T18:16:51.002Z,-74
2022-08-26T18:19:19.688Z,-73
2022-08-26T18:21:48.102Z,-73
2022-08-26T18:24:16.503Z,-73
2022-08-26T18:26:48.901Z,-74
2022-08-26T18:29:19.812Z,-73
2022-08-26T18:31:48.544Z,-73
2022-08-26T18:34:17.037Z,-73
2022-08-26T18:36:45.836Z,-73
2022-08-26T18:39:15.810Z,-73
2022-08-26T18:41:49.852Z,-74
2022-08-26T18:44:21.350Z,-73
2022-08-26T18:46:50.317Z,-73
2022-08-26T18:49:20.991Z,-74
2022-08-26T18:51:51.064Z,-73
2022-08-26T18:56:49.458Z,-74
2022-08-26T18:59:18.337Z,-74
2022-08-26T19:01:50.647Z,-73
2022-08-26T19:04:19.477Z,-73
2022-08-26T19:06:51.938Z,-74
2022-08-26T19:09:21.240Z,-74
2022-08-26T19:11:50.201Z,-73
2022-08-26T19:14:19.205Z,-74
2022-08-26T19:16:52.451Z,-74
2022-08-26T19:19:23.835Z,-74
2022-08-26T19:21:52.823Z,-73
2022-08-26T19:24:21.876Z,-73
2022-08-26T19:26:58.035Z,-74
2022-08-26T19:29:30.388Z,-74
2022-08-26T19:31:58.804Z,-74
2022-08-26T19:34:27.972Z,-74
2022-08-26T19:36:58.350Z,-74
2022-08-26T19:39:27.647Z,-73
2022-08-26T19:41:56.355Z,-73
2022-08-26T19:44:42.721Z,-74
2022-08-26T19:47:13.009Z,-74
2022-08-26T19:49:41.485Z,-74
2022-08-26T19:52:12.280Z,-74
2022-08-26T19:54:41.001Z,-74
2022-08-26T19:57:09.518Z,-74
2022-08-26T19:59:37.972Z,-74
2022-08-26T20:02:10.540Z,-74
2022-08-26T20:04:41.624Z,-74
2022-08-26T20:07:12.930Z,-74
2022-08-26T20:09:43.749Z,-73
2022-08-26T20:12:12.147Z,-74
2022-08-26T20:14:40.600Z,-73
2022-08-26T20:17:09.181Z,-73
2022-08-26T20:19:55.469Z,-73
2022-08-26T20:22:23.993Z,-74
2022-08-26T20:24:52.890Z,-74
2022-08-26T20:27:27.676Z,-73
2022-08-26T20:30:08.571Z,-73
2022-08-26T20:32:37.511Z,-74
2022-08-26T20:35:08.785Z,-73
2022-08-26T20:37:38.518Z,-73
2022-08-26T20:40:09.412Z,-73
2022-08-26T20:42:38.711Z,-74
2022-08-26T20:45:09.025Z,-74
2022-08-26T20:47:37.520Z,-74
2022-08-26T20:50:06.404Z,-74
2022-08-26T20:52:34.917Z,-74
2022-08-26T20:55:03.716Z,-74
2022-08-26T20:57:32.163Z,-74
2022-08-26T21:00:01.063Z,-74
2022-08-26T21:02:29.612Z,-74
2022-08-26T21:04:58.161Z,-74
2022-08-26T21:07:26.650Z,-74
2022-08-26T21:09:56.035Z,-74
2022-08-26T21:12:24.535Z,-74
2022-08-26T21:14:53.198Z,-74
2022-08-26T21:17:21.708Z,-87
2022-08-26T21:19:50.396Z,-88
2022-08-26T21:22:19.388Z,-87
2022-08-26T21:24:48.230Z,-87
2022-08-26T21:27:23.040Z,-87
2022-08-26T21:29:55.638Z,-87
2022-08-26T21:32:24.235Z,-87
2022-08-26T21:34:57.167Z,-86
2022-08-26T21:37:27.103Z,-87
2022-08-26T21:40:01.999Z,-86
2022-08-26T21:42:34.952Z,-87
2022-08-26T21:45:04.080Z,-87
2022-08-26T21:47:32.937Z,-87
2022-08-26T21:50:01.780Z,-87
2022-08-26T21:52:30.613Z,-87
2022-08-26T21:55:03.841Z,-87
2022-08-26T21:57:37.746Z,-88
2022-08-26T22:00:09.711Z,-88
2022-08-26T22:02:38.419Z,-87
2022-08-26T22:05:07.198Z,-87
2022-08-26T22:07:35.760Z,-87
2022-08-26T22:10:04.728Z,-87
2022-08-26T22:12:33.192Z,-86
2022-08-26T22:15:02.101Z,-86
2022-08-26T22:17:30.691Z,-87
2022-08-26T22:19:59.129Z,-87
2022-08-26T22:22:29.318Z,-87
2022-08-26T22:24:57.712Z,-86
2022-08-26T22:27:26.381Z,-86
2022-08-26T22:29:54.780Z,-87
2022-08-26T22:32:23.481Z,-87
2022-08-26T22:34:51.920Z,-86
2022-08-26T22:37:20.293Z,-86
2022-08-26T22:39:48.831Z,-87
2022-08-26T22:42:17.241Z,-87
2022-08-26T22:44:45.644Z,-87
2022-08-26T22:47:14.068Z,-87
2022-08-26T22:49:42.461Z,-87
2022-08-26T22:52:10.911Z,-87
2022-08-26T22:54:39.332Z,-87
2022-08-26T22:57:07.844Z,-87
2022-08-26T22:59:36.284Z,-87
2022-08-26T23:02:04.730Z,-86
2022-08-26T23:04:36.618Z,-86
2022-08-26T23:07:05.214Z,-87
2022-08-26T23:09:33.831Z,-87
2022-08-26T23:12:02.227Z,-87
2022-08-26T23:14:30.673Z,-87
2022-08-26T23:16:59.167Z,-87
2022-08-26T23:19:27.633Z,-87
2022-08-26T23:21:56.420Z,-87
2022-08-26T23:24:24.790Z,-87
2022-08-26T23:26:53.139Z,-86
2022-08-26T23:29:24.413Z,-86
2022-08-26T23:31:52.928Z,-87
2022-08-26T23:37:21.301Z,-88
2022-08-26T23:39:51.533Z,-87
2022-08-26T23:42:20.129Z,-87
2022-08-26T23:44:48.532Z,-87
2022-08-26T23:47:18.071Z,-87
2022-08-26T23:49:46.470Z,-87
2022-08-26T23:52:35.114Z,-87
2022-08-26T23:55:03.598Z,-87
2022-08-26T23:57:31.995Z,-87
